createdAt,value
2018-12-19T00:02:32.755Z,20.10
2018-12-19T00:05:05.408Z,21.67
2018-12-19T00:07:40.167Z,20.27
2018-12-19T00:10:14.906Z,19.57
2018-12-19T00:12:47.971Z,20.77
2018-12-19T00:15:23.127Z,20.23
2018-12-19T00:17:57.372Z,20.03
2018-12-19T00:20:27.707Z,17.97
2018-12-19T00:23:00.263Z,19.17
2018-12-19T00:25:35.164Z,19.90
2018-12-19T00:28:12.079Z,19.40
2018-12-19T00:30:46.056Z,19.40
2018-12-19T00:33:22.982Z,16.70
2018-12-19T00:35:58.488Z,18.07
2018-12-19T00:38:31.020Z,17.70
2018-12-19T00:41:03.658Z,18.97
2018-12-19T00:43:33.946Z,19.93
2018-12-19T00:46:08.582Z,19.23
2018-12-19T00:48:45.524Z,17.50
2018-12-19T00:51:18.181Z,16.43
2018-12-19T00:53:52.652Z,19.83
2018-12-19T00:56:28.562Z,18.27
2018-12-19T00:59:01.780Z,19.67
2018-12-19T01:01:34.801Z,18.97
2018-12-19T01:04:04.825Z,19.07
2018-12-19T01:06:37.361Z,19.33
2018-12-19T01:12:14.461Z,17.77
2018-12-19T01:14:46.915Z,18.47
2018-12-19T01:17:20.285Z,19.67
2018-12-19T01:19:50.441Z,19.93
2018-12-19T01:22:26.636Z,19.30
2018-12-19T01:24:59.173Z,16.70
2018-12-19T01:27:34.268Z,18.10
2018-12-19T01:30:07.274Z,19.70
2018-12-19T01:32:37.658Z,17.60
2018-12-19T01:35:22.687Z,21.57
2018-12-19T01:37:55.910Z,22.00
2018-12-19T01:43:23.520Z,19.00
2018-12-19T01:45:58.193Z,19.13
2018-12-19T01:48:31.325Z,21.77
2018-12-19T01:51:04.279Z,19.93
2018-12-19T01:53:38.995Z,20.37
2018-12-19T01:56:13.376Z,22.30
2018-12-19T01:58:45.506Z,18.13
2018-12-19T02:01:16.743Z,20.10
2018-12-19T02:03:52.073Z,18.27
2018-12-19T02:06:27.051Z,20.33
2018-12-19T02:09:03.085Z,17.23
2018-12-19T02:11:33.982Z,18.63
2018-12-19T02:14:09.260Z,21.10
2018-12-19T02:16:41.362Z,19.30
2018-12-19T02:19:16.639Z,17.00
2018-12-19T02:21:47.234Z,18.23
2018-12-19T02:24:23.577Z,19.30
2018-12-19T02:27:04.374Z,19.10
2018-12-19T02:29:37.352Z,19.57
2018-12-19T02:32:09.319Z,20.20
2018-12-19T02:34:41.526Z,19.93
2018-12-19T02:37:12.449Z,19.80
2018-12-19T02:39:47.503Z,20.53
2018-12-19T02:42:21.902Z,19.83
2018-12-19T02:44:56.765Z,19.00
2018-12-19T02:47:31.799Z,19.47
2018-12-19T02:50:08.639Z,18.33
2018-12-19T02:52:42.874Z,19.83
2018-12-19T02:55:11.903Z,19.37
2018-12-19T02:57:45.235Z,19.27
2018-12-19T03:00:26.598Z,20.20
2018-12-19T03:03:05.392Z,18.73
2018-12-19T03:05:36.590Z,19.90
2018-12-19T03:08:08.294Z,20.87
2018-12-19T03:10:43.078Z,19.10
2018-12-19T03:13:12.415Z,20.73
2018-12-19T03:15:47.106Z,19.37
2018-12-19T03:18:22.127Z,21.17
2018-12-19T03:20:52.318Z,22.93
2018-12-19T03:23:24.907Z,17.87
2018-12-19T03:26:00.181Z,20.23
2018-12-19T03:28:36.148Z,22.30
2018-12-19T03:31:11.537Z,19.43
2018-12-19T03:33:46.270Z,20.03
2018-12-19T03:36:19.319Z,19.63
2018-12-19T03:38:56.721Z,20.93
2018-12-19T03:41:31.338Z,19.97
2018-12-19T03:44:05.943Z,18.93
2018-12-19T03:46:51.270Z,22.20
2018-12-19T03:49:26.997Z,18.17
2018-12-19T03:51:57.558Z,18.90
2018-12-19T03:54:33.473Z,18.70
2018-12-19T03:57:08.539Z,20.03
2018-12-19T03:59:50.395Z,19.07
2018-12-19T04:02:25.883Z,20.30
2018-12-19T04:04:55.666Z,18.93
2018-12-19T04:07:31.762Z,19.77
2018-12-19T04:10:02.026Z,20.57
2018-12-19T04:12:33.006Z,18.97
2018-12-19T04:15:08.046Z,20.10
2018-12-19T04:17:37.130Z,20.23
2018-12-19T04:20:11.814Z,20.67
2018-12-19T04:22:47.160Z,20.33
2018-12-19T04:25:22.120Z,18.80
2018-12-19T04:27:58.348Z,18.90
2018-12-19T04:30:31.203Z,20.43
2018-12-19T04:33:13.565Z,21.30
2018-12-19T04:35:47.828Z,20.00
2018-12-19T04:38:22.826Z,19.60
2018-12-19T04:40:57.706Z,20.20
2018-12-19T04:43:31.901Z,19.27
2018-12-19T04:46:02.464Z,19.53
2018-12-19T04:48:37.768Z,21.70
2018-12-19T04:51:10.821Z,19.87
2018-12-19T04:53:46.248Z,20.10
2018-12-19T04:56:20.612Z,18.13
2018-12-19T04:58:49.718Z,18.40
2018-12-19T05:01:22.141Z,20.63
2018-12-19T05:03:57.433Z,20.93
2018-12-19T05:06:29.863Z,18.67
2018-12-19T05:09:04.844Z,17.33
2018-12-19T05:11:34.901Z,18.60
2018-12-19T05:14:08.761Z,20.73
2018-12-19T05:16:41.287Z,18.67
2018-12-19T05:19:18.317Z,18.27
2018-12-19T05:21:51.362Z,19.53
2018-12-19T05:24:29.388Z,20.10
2018-12-19T05:27:03.770Z,18.93
2018-12-19T05:29:32.616Z,19.77
2018-12-19T05:32:04.867Z,19.57
2018-12-19T05:34:41.568Z,19.47
2018-12-19T05:37:15.884Z,23.37
2018-12-19T05:39:48.529Z,20.73
2018-12-19T05:42:23.096Z,18.50
2018-12-19T05:44:57.986Z,18.53
2018-12-19T05:47:35.065Z,18.83
2018-12-19T05:50:08.353Z,18.50
2018-12-19T05:52:40.647Z,18.33
2018-12-19T05:55:22.551Z,21.37
2018-12-19T05:58:01.244Z,18.50
2018-12-19T06:00:34.360Z,19.70
2018-12-19T06:03:14.251Z,20.07
2018-12-19T06:05:55.833Z,16.90
2018-12-19T06:08:26.139Z,20.27
2018-12-19T06:10:59.785Z,18.43
2018-12-19T06:13:33.499Z,17.40
2018-12-19T06:16:08.994Z,18.80
2018-12-19T06:18:50.282Z,20.93
2018-12-19T06:26:58.549Z,16.93
2018-12-19T06:29:39.351Z,16.67
2018-12-19T06:32:13.959Z,17.70
2018-12-19T06:34:43.054Z,18.30
2018-12-19T06:37:17.956Z,21.67
2018-12-19T06:39:52.885Z,16.70
2018-12-19T06:42:26.254Z,18.13
2018-12-19T06:45:01.186Z,20.07
2018-12-19T06:47:34.581Z,27.83
2018-12-19T06:50:09.048Z,20.67
2018-12-19T06:52:43.590Z,24.03
2018-12-19T06:55:16.914Z,18.77
2018-12-19T06:57:52.767Z,16.07
2018-12-19T07:00:28.839Z,15.83
2018-12-19T07:03:06.651Z,17.37
2018-12-19T07:05:41.849Z,16.83
2018-12-19T07:08:16.371Z,17.73
2018-12-19T07:10:49.308Z,19.43
2018-12-19T07:13:32.363Z,19.00
2018-12-19T07:16:06.881Z,16.77
2018-12-19T07:18:42.192Z,19.23
2018-12-19T07:21:14.605Z,17.47
2018-12-19T07:23:49.409Z,18.03
2018-12-19T07:26:26.090Z,17.53
2018-12-19T07:29:03.606Z,18.93
2018-12-19T07:31:37.399Z,15.97
2018-12-19T07:34:15.107Z,15.90
2018-12-19T07:36:50.129Z,16.30
2018-12-19T07:39:27.889Z,19.30
2018-12-19T07:42:02.869Z,16.97
2018-12-19T07:44:37.847Z,20.63
2018-12-19T07:47:19.936Z,18.03
2018-12-19T07:49:52.272Z,15.93
2018-12-19T07:52:27.329Z,18.37
2018-12-19T07:54:59.728Z,16.30
2018-12-19T07:57:35.549Z,18.93
2018-12-19T08:00:08.154Z,18.47
2018-12-19T08:02:37.175Z,17.37
2018-12-19T08:05:09.898Z,19.67
2018-12-19T08:07:40.198Z,20.20
2018-12-19T08:10:12.808Z,17.57
2018-12-19T08:12:47.652Z,18.80
2018-12-19T08:15:16.866Z,17.63
2018-12-19T08:17:49.862Z,17.90
2018-12-19T08:23:09.278Z,19.10
2018-12-19T08:25:42.379Z,17.23
2018-12-19T08:28:18.981Z,19.57
2018-12-19T08:30:54.496Z,16.87
2018-12-19T08:33:30.205Z,17.30
2018-12-19T08:36:04.535Z,16.73
2018-12-19T08:38:39.271Z,16.90
2018-12-19T08:41:23.885Z,21.23
2018-12-19T08:43:58.611Z,23.73
2018-12-19T08:46:33.257Z,20.43
2018-12-19T08:49:03.498Z,23.27
2018-12-19T08:51:36.290Z,24.50
2018-12-19T08:54:06.415Z,21.83
2018-12-19T08:56:41.266Z,23.80
2018-12-19T08:59:16.944Z,24.27
2018-12-19T09:01:50.947Z,26.07
2018-12-19T09:04:26.088Z,21.97
2018-12-19T09:06:59.357Z,24.33
2018-12-19T09:09:29.757Z,21.50
2018-12-19T09:12:04.416Z,22.37
2018-12-19T09:14:38.263Z,23.43
2018-12-19T09:17:18.938Z,26.17
2018-12-19T09:19:50.679Z,26.37
2018-12-19T09:22:23.644Z,26.47
2018-12-19T09:24:54.447Z,24.17
2018-12-19T09:27:26.934Z,23.67
2018-12-19T09:30:14.251Z,26.17
2018-12-19T09:32:43.584Z,25.50
2018-12-19T09:35:19.025Z,26.37
2018-12-19T09:37:51.980Z,24.60
2018-12-19T09:40:21.727Z,27.07
2018-12-19T09:42:57.394Z,26.47
2018-12-19T09:45:32.564Z,24.70
2018-12-19T09:48:01.875Z,27.03
2018-12-19T09:50:41.619Z,26.40
2018-12-19T09:53:16.423Z,26.30
2018-12-19T09:55:57.188Z,27.53
2018-12-19T09:58:29.921Z,28.77
2018-12-19T10:01:13.059Z,27.40
2018-12-19T10:03:49.591Z,26.67
2018-12-19T10:06:22.362Z,27.87
2018-12-19T10:08:57.297Z,26.40
2018-12-19T10:11:32.344Z,26.60
2018-12-19T10:14:04.932Z,26.33
2018-12-19T10:16:40.076Z,27.17
2018-12-19T10:19:14.646Z,25.57
2018-12-19T10:21:47.443Z,29.67
2018-12-19T10:24:26.882Z,28.20
2018-12-19T10:27:06.129Z,26.87
2018-12-19T10:29:38.484Z,26.70
2018-12-19T10:32:12.706Z,26.73
2018-12-19T10:34:47.528Z,28.10
2018-12-19T10:37:16.654Z,26.43
2018-12-19T10:39:50.934Z,27.33
2018-12-19T10:42:26.514Z,28.57
2018-12-19T10:45:02.150Z,26.30
2018-12-19T10:47:35.399Z,23.07
2018-12-19T10:50:10.893Z,26.50
2018-12-19T10:52:43.842Z,24.17
2018-12-19T10:55:23.730Z,26.73
2018-12-19T10:57:58.630Z,30.23
2018-12-19T11:00:36.641Z,26.47
2018-12-19T11:03:14.302Z,25.33
2018-12-19T11:05:57.236Z,30.87
2018-12-19T11:08:26.666Z,25.47
2018-12-19T11:11:01.167Z,29.03
2018-12-19T11:13:35.586Z,27.77
2018-12-19T11:16:04.682Z,25.40
2018-12-19T11:18:33.880Z,27.03
2018-12-19T11:21:15.878Z,26.60
2018-12-19T11:23:54.901Z,27.17
2018-12-19T11:26:24.450Z,26.00
2018-12-19T11:29:03.250Z,27.83
2018-12-19T11:31:39.639Z,26.27
2018-12-19T11:34:13.184Z,27.33
2018-12-19T11:36:42.540Z,26.80
2018-12-19T11:39:17.872Z,29.20
2018-12-19T11:41:57.837Z,23.93
2018-12-19T11:44:32.531Z,26.13
2018-12-19T11:47:05.232Z,27.57
2018-12-19T11:49:37.401Z,27.13
2018-12-19T11:52:12.530Z,26.47
2018-12-19T11:54:49.545Z,24.93
2018-12-19T11:57:21.938Z,27.80
2018-12-19T12:02:54.461Z,44.87
2018-12-19T12:05:28.984Z,33.13
2018-12-19T12:10:56.784Z,27.70
2018-12-19T12:13:25.979Z,26.83
2018-12-19T12:16:00.998Z,31.13
2018-12-19T12:18:34.973Z,28.60
2018-12-19T12:21:07.393Z,30.50
2018-12-19T12:23:47.371Z,29.83
2018-12-19T12:26:22.118Z,25.50
2018-12-19T12:28:51.266Z,23.77
2018-12-19T12:31:21.695Z,23.90
2018-12-19T12:33:56.453Z,30.43
2018-12-19T12:36:25.780Z,28.73
2018-12-19T12:39:06.936Z,27.00
2018-12-19T12:41:39.579Z,27.07
2018-12-19T12:44:19.518Z,25.77
2018-12-19T12:50:04.151Z,27.67
2018-12-19T12:52:39.149Z,28.70
2018-12-19T12:55:17.282Z,27.20
2018-12-19T12:57:51.971Z,29.10
2018-12-19T13:00:25.123Z,30.17
2018-12-19T13:02:58.145Z,26.40
2018-12-19T13:05:30.526Z,29.77
2018-12-19T13:08:06.580Z,29.30
2018-12-19T13:10:50.615Z,28.33
2018-12-19T13:13:28.992Z,29.37
2018-12-19T13:18:51.887Z,33.80
2018-12-19T13:21:25.677Z,28.60
2018-12-19T13:24:04.321Z,25.07
2018-12-19T13:26:40.019Z,30.77
2018-12-19T13:29:13.540Z,33.67
2018-12-19T13:31:48.374Z,29.10
2018-12-19T13:34:23.134Z,28.70
2018-12-19T13:36:58.975Z,35.27
2018-12-19T13:39:31.817Z,30.70
2018-12-19T13:42:05.769Z,29.67
2018-12-19T13:44:40.748Z,32.63
2018-12-19T13:47:22.141Z,26.50
2018-12-19T13:50:05.857Z,31.40
2018-12-19T13:52:42.204Z,32.97
2018-12-19T13:55:18.025Z,32.70
2018-12-19T13:57:47.045Z,34.87
2018-12-19T14:00:21.936Z,29.40
2018-12-19T14:02:50.842Z,30.37
2018-12-19T14:05:25.837Z,32.60
2018-12-19T14:08:07.178Z,32.03
2018-12-19T14:10:46.186Z,29.20
2018-12-19T14:13:19.073Z,29.83
2018-12-19T14:16:00.623Z,30.70
2018-12-19T14:18:32.792Z,29.23
2018-12-19T14:21:09.624Z,30.87
2018-12-19T14:23:39.126Z,28.27
2018-12-19T14:26:18.716Z,30.07
2018-12-19T14:28:53.866Z,30.10
2018-12-19T14:31:33.446Z,29.90
2018-12-19T14:34:08.043Z,29.90
2018-12-19T14:36:40.203Z,30.53
2018-12-19T14:39:12.061Z,26.60
2018-12-19T14:41:44.338Z,31.03
2018-12-19T14:44:18.883Z,29.70
2018-12-19T14:46:49.340Z,30.40
2018-12-19T14:49:29.807Z,30.77
2018-12-19T14:52:04.761Z,29.17
2018-12-19T14:54:37.194Z,30.17
2018-12-19T14:57:16.489Z,25.50
2018-12-19T14:59:51.029Z,25.33
2018-12-19T15:02:20.512Z,29.03
2018-12-19T15:04:53.464Z,28.30
2018-12-19T15:07:28.167Z,27.37
2018-12-19T15:10:15.547Z,22.70
2018-12-19T15:12:51.303Z,26.13
2018-12-19T15:15:23.429Z,25.53
2018-12-19T15:17:57.559Z,24.30
2018-12-19T15:20:30.249Z,28.33
2018-12-19T15:23:02.030Z,29.20
2018-12-19T15:25:34.209Z,30.60
2018-12-19T15:28:04.070Z,27.83
2018-12-19T15:30:33.316Z,30.13
2018-12-19T15:33:16.435Z,26.77
2018-12-19T15:36:02.779Z,24.87
2018-12-19T15:38:38.482Z,30.07
2018-12-19T15:41:12.102Z,28.60
2018-12-19T15:43:52.893Z,29.13
2018-12-19T15:46:25.894Z,28.37
2018-12-19T15:48:54.681Z,24.57
2018-12-19T15:51:29.838Z,26.07
2018-12-19T15:54:02.940Z,27.03
2018-12-19T15:56:39.959Z,25.63
2018-12-19T15:59:10.983Z,24.03
2018-12-19T16:01:47.121Z,26.93
2018-12-19T16:04:27.458Z,27.17
2018-12-19T16:07:03.272Z,29.27
2018-12-19T16:09:39.027Z,29.53
2018-12-19T16:12:14.434Z,26.63
2018-12-19T16:14:56.057Z,30.17
2018-12-19T16:17:30.796Z,27.47
2018-12-19T16:20:06.421Z,27.03
2018-12-19T16:22:41.180Z,29.47
2018-12-19T16:25:16.430Z,29.00
2018-12-19T16:27:51.229Z,26.10
2018-12-19T16:30:26.014Z,23.87
2018-12-19T16:33:03.306Z,22.93
2018-12-19T16:35:44.212Z,19.73
2018-12-19T16:38:23.208Z,16.70
2018-12-19T16:41:04.423Z,16.63
2018-12-19T16:43:36.397Z,16.90
2018-12-19T16:46:09.132Z,15.40
2018-12-19T16:48:47.918Z,17.00
2018-12-19T16:51:24.104Z,18.03
2018-12-19T16:53:59.640Z,21.03
2018-12-19T16:56:34.082Z,19.87
2018-12-19T16:59:10.596Z,13.17
2018-12-19T17:01:47.146Z,15.47
2018-12-19T17:04:22.477Z,14.37
2018-12-19T17:07:12.525Z,14.23
2018-12-19T17:09:45.792Z,12.43
2018-12-19T17:12:21.068Z,14.40
2018-12-19T17:14:54.101Z,8.93
2018-12-19T17:17:24.434Z,14.63
2018-12-19T17:19:53.399Z,15.90
2018-12-19T17:22:22.216Z,13.33
2018-12-19T17:24:51.657Z,16.70
2018-12-19T17:27:21.338Z,12.37
2018-12-19T17:29:59.034Z,7.80
2018-12-19T17:32:29.211Z,9.93
2018-12-19T17:34:58.460Z,13.67
2018-12-19T17:37:34.431Z,6.07
2018-12-19T17:40:15.148Z,9.77
2018-12-19T17:45:51.066Z,13.27
2018-12-19T17:48:20.349Z,8.23
2018-12-19T17:50:50.192Z,8.60
2018-12-19T17:53:22.790Z,9.53
2018-12-19T17:58:35.292Z,7.83
2018-12-19T18:01:11.131Z,6.90
2018-12-19T18:06:34.617Z,6.53
2018-12-19T18:09:14.086Z,9.57
2018-12-19T18:11:50.786Z,8.13
2018-12-19T18:14:26.266Z,9.53
2018-12-19T18:17:07.558Z,9.00
2018-12-19T18:19:48.032Z,7.90
2018-12-19T18:22:25.487Z,7.47
2018-12-19T18:24:56.534Z,8.33
2018-12-19T18:27:29.790Z,7.17
2018-12-19T18:30:05.538Z,8.03
2018-12-19T18:32:44.472Z,8.10
2018-12-19T18:35:19.593Z,8.40
2018-12-19T18:37:54.773Z,8.57
2018-12-19T18:40:34.977Z,8.70
2018-12-19T18:43:04.030Z,9.80
2018-12-19T18:45:37.839Z,10.93
2018-12-19T18:48:23.340Z,8.77
2018-12-19T18:51:04.215Z,9.10
2018-12-19T18:53:44.784Z,7.93
2018-12-19T18:56:21.738Z,9.73
2018-12-19T18:58:51.360Z,8.77
2018-12-19T19:01:26.287Z,8.90
2018-12-19T19:04:12.693Z,8.13
2018-12-19T19:06:51.633Z,7.33
2018-12-19T19:09:35.350Z,7.60
2018-12-19T19:12:10.054Z,9.60
2018-12-19T19:14:45.434Z,7.60
2018-12-19T19:17:30.294Z,11.07
2018-12-19T19:19:59.580Z,11.00
2018-12-19T19:22:28.642Z,9.93
2018-12-19T19:24:58.606Z,9.80
2018-12-19T19:27:27.810Z,8.53
2018-12-19T19:29:56.890Z,8.20
2018-12-19T19:32:26.016Z,7.47
2018-12-19T19:35:04.173Z,9.40
2018-12-19T19:37:33.857Z,8.10
2018-12-19T19:40:03.271Z,11.63
2018-12-19T19:42:38.194Z,6.20
2018-12-19T19:45:12.998Z,8.93
2018-12-19T19:50:46.803Z,8.50
2018-12-19T19:53:22.177Z,8.93
2018-12-19T19:56:02.726Z,10.50
2018-12-19T19:58:37.020Z,9.73
2018-12-19T20:01:16.056Z,9.00
2018-12-19T20:03:52.236Z,8.23
2018-12-19T20:06:23.052Z,7.47
2018-12-19T20:08:58.146Z,9.03
2018-12-19T20:11:40.214Z,8.03
2018-12-19T20:14:21.682Z,6.77
2018-12-19T20:17:01.719Z,9.33
2018-12-19T20:19:40.986Z,8.17
2018-12-19T20:22:10.140Z,8.20
2018-12-19T20:24:52.110Z,7.93
2018-12-19T20:27:28.818Z,8.33
2018-12-19T20:30:05.006Z,8.33
2018-12-19T20:32:38.053Z,8.40
2018-12-19T20:35:10.265Z,8.83
2018-12-19T20:37:48.957Z,12.00
2018-12-19T20:40:18.011Z,9.30
2018-12-19T20:42:50.931Z,8.90
2018-12-19T20:45:27.992Z,8.30
2018-12-19T20:47:57.427Z,10.00
2018-12-19T20:50:29.413Z,9.03
2018-12-19T20:53:07.084Z,8.80
2018-12-19T20:55:46.523Z,11.33
2018-12-19T20:58:21.518Z,10.07
2018-12-19T21:01:03.702Z,9.50
2018-12-19T21:03:46.328Z,9.57
2018-12-19T21:06:15.292Z,9.90
2018-12-19T21:08:47.807Z,10.00
2018-12-19T21:11:24.478Z,12.37
2018-12-19T21:13:53.587Z,12.00
2018-12-19T21:16:26.968Z,12.30
2018-12-19T21:18:56.533Z,13.50
2018-12-19T21:21:25.730Z,12.43
2018-12-19T21:23:55.852Z,13.63
2018-12-19T21:26:32.961Z,12.83
2018-12-19T21:29:05.973Z,14.37
2018-12-19T21:31:38.607Z,14.43
2018-12-19T21:34:08.936Z,13.50
2018-12-19T21:39:31.487Z,15.17
2018-12-19T21:42:14.542Z,12.93
2018-12-19T21:44:47.928Z,15.07
2018-12-19T21:47:18.979Z,13.53
2018-12-19T21:49:59.436Z,15.00
2018-12-19T21:55:35.960Z,14.23
2018-12-19T21:58:06.264Z,15.83
2018-12-19T22:00:41.339Z,17.30
2018-12-19T22:03:16.490Z,16.20
2018-12-19T22:09:01.012Z,14.87
2018-12-19T22:11:35.613Z,14.93
2018-12-19T22:14:07.884Z,17.90
2018-12-19T22:16:48.811Z,19.17
2018-12-19T22:19:24.247Z,17.43
2018-12-19T22:21:59.379Z,17.03
2018-12-19T22:24:34.676Z,17.00
2018-12-19T22:27:05.539Z,17.43
2018-12-19T22:29:40.560Z,14.57
2018-12-19T22:32:13.722Z,15.13
2018-12-19T22:34:46.589Z,17.63
2018-12-19T22:37:15.632Z,14.03
2018-12-19T22:39:44.972Z,12.57
2018-12-19T22:42:19.967Z,12.30
2018-12-19T22:44:49.191Z,11.27
2018-12-19T22:47:18.379Z,10.77
2018-12-19T22:49:53.415Z,11.70
2018-12-19T22:52:22.423Z,10.17
2018-12-19T22:54:51.676Z,11.87
2018-12-19T22:57:36.954Z,13.17
2018-12-19T23:00:07.027Z,13.30
2018-12-19T23:02:43.849Z,12.57
2018-12-19T23:05:34.641Z,13.27
2018-12-19T23:08:19.171Z,14.10
2018-12-19T23:10:49.191Z,13.93
2018-12-19T23:13:18.634Z,15.40
2018-12-19T23:15:55.626Z,15.73
2018-12-19T23:18:31.365Z,15.50
2018-12-19T23:21:19.605Z,16.83
2018-12-19T23:23:55.504Z,17.07
2018-12-19T23:26:25.452Z,16.27
2018-12-19T23:29:00.920Z,19.80
2018-12-19T23:31:32.369Z,15.27
2018-12-19T23:34:08.459Z,14.67
2018-12-19T23:36:37.852Z,15.27
2018-12-19T23:39:12.486Z,17.37
2018-12-19T23:41:41.460Z,16.07
2018-12-19T23:44:29.600Z,14.43
2018-12-19T23:47:12.917Z,15.77
2018-12-19T23:49:58.079Z,15.37
2018-12-19T23:52:34.232Z,17.10
2018-12-19T23:58:02.236Z,15.63
